Time;durP1;ratioP1;P1;durP2;ratioP2;P2;SDS_P1;SDS_P2;PMS_P1;PMS_P2;Temp;Humidity;BMP_temperature;BMP_pressure;BME280_temperature;BME280_humidity;BME280_pressure;Samples;Min_cycle;Max_cycle;Signal;HPM_P1;HPM_P2
2023/08/19 00:01:20;;;;;;;10.95;4.82;;;;;;;;;;6127898;23;20024;-44
2023/08/19 00:03:48;;;;;;;10.82;5.20;;;;;;;;;;6119317;23;20069;-43
2023/08/19 00:06:31;;;;;;;10.00;4.93;;;;;;;;;;6128624;23;20049;-42
2023/08/19 00:09:00;;;;;;;12.25;4.47;;;;;;;;;;6125492;23;20065;-42
2023/08/19 00:11:28;;;;;;;15.68;5.72;;;;;;;;;;6111188;23;20018;-42
2023/08/19 00:13:56;;;;;;;10.70;5.15;;;;;;;;;;6126451;23;20017;-42
2023/08/19 00:16:23;;;;;;;11.57;4.55;;;;;;;;;;6150888;23;20013;-43
2023/08/19 00:18:52;;;;;;;9.30;4.50;;;;;;;;;;6131774;23;20076;-43
2023/08/19 00:21:19;;;;;;;8.77;4.53;;;;;;;;;;6120862;23;20022;-45
2023/08/19 00:23:47;;;;;;;9.63;4.40;;;;;;;;;;6150295;23;20025;-43
2023/08/19 00:26:16;;;;;;;10.57;3.88;;;;;;;;;;6125156;23;20018;-42
2023/08/19 00:28:44;;;;;;;9.43;4.07;;;;;;;;;;6108919;23;20017;-45
2023/08/19 00:31:12;;;;;;;7.93;3.80;;;;;;;;;;6129778;23;20080;-42
2023/08/19 00:33:40;;;;;;;7.70;3.35;;;;;;;;;;6122122;23;20473;-42
2023/08/19 00:36:07;;;;;;;8.82;3.80;;;;;;;;;;6127707;23;20013;-42
2023/08/19 00:38:35;;;;;;;7.97;3.28;;;;;;;;;;6120105;23;20048;-42
2023/08/19 00:41:04;;;;;;;11.00;3.08;;;;;;;;;;6130766;23;20444;-42
2023/08/19 00:43:33;;;;;;;10.70;2.90;;;;;;;;;;6118841;23;20381;-42
2023/08/19 00:46:06;;;;;;;9.00;3.10;;;;;;;;;;6131391;23;20022;-47
2023/08/19 00:48:34;;;;;;;7.25;2.95;;;;;;;;;;6118542;23;20022;-43
2023/08/19 00:51:05;;;;;;;8.82;2.72;;;;;;;;;;6132676;23;20352;-45
2023/08/19 00:53:34;;;;;;;10.45;2.90;;;;;;;;;;6125137;23;20437;-46
2023/08/19 00:56:02;;;;;;;11.23;2.57;;;;;;;;;;6128281;23;20024;-44
2023/08/19 00:58:29;;;;;;;8.70;2.40;;;;;;;;;;6113975;23;20022;-43
2023/08/19 01:00:59;;;;;;;9.75;3.15;;;;;;;;;;6121781;23;20026;-45
2023/08/19 01:03:26;;;;;;;10.50;2.53;;;;;;;;;;6117695;23;20452;-42
2023/08/19 01:06:00;;;;;;;11.48;2.15;;;;;;;;;;6128926;23;20444;-42
2023/08/19 01:08:32;;;;;;;11.30;2.17;;;;;;;;;;6121960;23;20068;-45
2023/08/19 01:11:03;;;;;;;10.30;2.50;;;;;;;;;;6125009;23;20017;-45
2023/08/19 01:13:33;;;;;;;9.13;2.28;;;;;;;;;;6122369;23;20076;-45
2023/08/19 01:16:05;;;;;;;13.90;2.50;;;;;;;;;;6124996;23;20013;-43
2023/08/19 01:18:34;;;;;;;13.05;2.25;;;;;;;;;;6129852;23;20109;-42
2023/08/19 01:21:03;;;;;;;11.40;2.47;;;;;;;;;;6117693;23;20014;-43
2023/08/19 01:23:31;;;;;;;11.20;2.63;;;;;;;;;;6123139;23;20436;-42
2023/08/19 01:26:01;;;;;;;13.32;2.67;;;;;;;;;;6129159;23;20018;-43
2023/08/19 01:28:28;;;;;;;13.05;1.90;;;;;;;;;;6119226;23;20022;-45
2023/08/19 01:30:57;;;;;;;13.32;2.65;;;;;;;;;;6127733;23;20036;-43
2023/08/19 01:33:25;;;;;;;16.80;2.27;;;;;;;;;;6121852;23;20096;-42
2023/08/19 01:35:57;;;;;;;16.10;2.20;;;;;;;;;;6151998;23;20460;-44
2023/08/19 01:38:30;;;;;;;17.27;2.63;;;;;;;;;;6126613;23;20376;-44
2023/08/19 01:40:58;;;;;;;15.77;2.70;;;;;;;;;;6131012;23;20013;-43
2023/08/19 01:43:27;;;;;;;14.45;2.30;;;;;;;;;;6118126;23;20018;-44
2023/08/19 01:45:55;;;;;;;14.70;2.57;;;;;;;;;;6126150;23;20022;-43
2023/08/19 01:48:23;;;;;;;14.00;2.50;;;;;;;;;;6131784;23;20022;-43
2023/08/19 01:50:51;;;;;;;16.30;3.03;;;;;;;;;;6135218;23;20021;-42
2023/08/19 01:53:18;;;;;;;13.90;2.78;;;;;;;;;;6129021;23;20018;-43
2023/08/19 01:55:46;;;;;;;16.05;2.92;;;;;;;;;;6108274;23;20350;-44
2023/08/19 01:58:13;;;;;;;15.13;2.87;;;;;;;;;;6130423;23;20018;-44
2023/08/19 02:00:42;;;;;;;13.88;2.33;;;;;;;;;;6125939;23;20017;-44
2023/08/19 02:03:10;;;;;;;21.30;2.70;;;;;;;;;;6132769;23;20032;-42
2023/08/19 02:05:38;;;;;;;17.30;2.97;;;;;;;;;;6124057;23;20021;-43
2023/08/19 02:08:06;;;;;;;12.90;2.85;;;;;;;;;;6107038;23;20348;-42
2023/08/19 02:10:33;;;;;;;13.90;2.77;;;;;;;;;;6137700;23;20017;-43
2023/08/19 02:13:01;;;;;;;14.43;3.00;;;;;;;;;;6124924;23;20100;-42
2023/08/19 02:15:29;;;;;;;14.38;2.60;;;;;;;;;;6123407;23;20079;-42
2023/08/19 02:17:59;;;;;;;16.83;3.10;;;;;;;;;;6126731;23;20912;-42
2023/08/19 02:20:27;;;;;;;19.77;2.88;;;;;;;;;;6138608;23;20045;-42
2023/08/19 02:22:55;;;;;;;13.20;3.67;;;;;;;;;;6126444;23;20026;-42
2023/08/19 02:25:22;;;;;;;16.63;2.45;;;;;;;;;;6133172;23;20045;-42
2023/08/19 02:27:50;;;;;;;17.30;2.60;;;;;;;;;;6124428;23;20032;-46
2023/08/19 02:30:18;;;;;;;15.70;2.83;;;;;;;;;;6109624;23;20028;-43
2023/08/19 02:32:45;;;;;;;20.65;3.00;;;;;;;;;;6126387;23;20017;-43
2023/08/19 02:35:16;;;;;;;20.03;3.47;;;;;;;;;;6130589;23;20056;-42
2023/08/19 02:37:44;;;;;;;19.88;2.95;;;;;;;;;;6133768;23;20022;-42
2023/08/19 02:40:11;;;;;;;20.80;3.20;;;;;;;;;;6131258;23;20032;-42
2023/08/19 02:42:39;;;;;;;17.52;3.22;;;;;;;;;;6128689;23;20117;-42
2023/08/19 02:45:07;;;;;;;16.15;2.60;;;;;;;;;;6121565;23;20010;-44
2023/08/19 02:47:36;;;;;;;19.50;3.00;;;;;;;;;;6127423;23;20013;-43
2023/08/19 02:50:05;;;;;;;16.83;2.83;;;;;;;;;;6128005;23;20022;-43
2023/08/19 02:52:34;;;;;;;20.80;2.80;;;;;;;;;;6134340;23;20028;-44
2023/08/19 02:55:01;;;;;;;14.02;3.42;;;;;;;;;;6124719;23;20013;-44
2023/08/19 02:57:30;;;;;;;15.27;3.08;;;;;;;;;;6132215;23;20013;-42
2023/08/19 02:59:58;;;;;;;18.40;2.97;;;;;;;;;;6126740;23;20021;-41
2023/08/19 03:02:27;;;;;;;17.38;3.03;;;;;;;;;;6135626;23;20025;-43
2023/08/19 03:04:55;;;;;;;16.60;3.22;;;;;;;;;;6115983;23;20019;-42
2023/08/19 03:07:23;;;;;;;15.77;3.42;;;;;;;;;;6137851;23;20476;-42
2023/08/19 03:09:51;;;;;;;16.20;3.67;;;;;;;;;;6122331;23;20029;-43
2023/08/19 03:12:20;;;;;;;15.10;2.77;;;;;;;;;;6137195;23;20841;-43
2023/08/19 03:14:47;;;;;;;20.95;3.17;;;;;;;;;;6119728;23;20286;-43
2023/08/19 03:17:15;;;;;;;23.48;4.03;;;;;;;;;;6140274;23;20017;-42
2023/08/19 03:19:42;;;;;;;19.90;3.40;;;;;;;;;;6112710;23;20041;-42
2023/08/19 03:22:10;;;;;;;24.90;2.53;;;;;;;;;;6135843;23;20017;-42
2023/08/19 03:24:41;;;;;;;19.90;2.30;;;;;;;;;;6134619;23;20314;-42
2023/08/19 03:27:09;;;;;;;17.52;2.92;;;;;;;;;;6126621;23;20014;-42
2023/08/19 03:29:37;;;;;;;22.48;3.28;;;;;;;;;;6130435;23;20076;-42
2023/08/19 03:32:05;;;;;;;20.50;2.95;;;;;;;;;;6125154;23;20021;-49
2023/08/19 03:34:32;;;;;;;23.70;4.07;;;;;;;;;;6131190;23;20014;-42
2023/08/19 03:37:00;;;;;;;16.67;3.10;;;;;;;;;;6109299;23;20447;-44
2023/08/19 03:39:28;;;;;;;20.40;3.80;;;;;;;;;;6135039;23;20040;-44
2023/08/19 03:41:56;;;;;;;21.98;3.08;;;;;;;;;;6127571;23;20037;-43
2023/08/19 03:44:24;;;;;;;21.02;3.70;;;;;;;;;;6116608;23;20033;-43
2023/08/19 03:46:56;;;;;;;21.30;2.80;;;;;;;;;;6132164;23;20387;-45
2023/08/19 03:49:23;;;;;;;15.53;2.77;;;;;;;;;;6137058;23;20037;-42
2023/08/19 03:51:51;;;;;;;24.15;3.35;;;;;;;;;;6122341;23;20025;-44
2023/08/19 03:54:19;;;;;;;20.05;3.70;;;;;;;;;;6118389;23;20013;-44
2023/08/19 03:56:46;;;;;;;22.98;3.28;;;;;;;;;;6112458;23;20462;-42
2023/08/19 03:59:14;;;;;;;20.75;3.22;;;;;;;;;;6133499;23;20018;-44
2023/08/19 04:01:43;;;;;;;19.30;2.20;;;;;;;;;;6129606;23;20036;-43
2023/08/19 04:04:10;;;;;;;17.83;2.60;;;;;;;;;;6134070;23;20018;-43
2023/08/19 04:06:38;;;;;;;22.40;3.08;;;;;;;;;;6135330;23;20018;-42
2023/08/19 04:09:06;;;;;;;17.85;2.72;;;;;;;;;;6125475;23;20448;-42
2023/08/19 04:11:34;;;;;;;13.63;2.25;;;;;;;;;;6135433;23;20013;-42
2023/08/19 04:14:01;;;;;;;14.67;2.33;;;;;;;;;;6121610;23;20017;-42
2023/08/19 04:16:29;;;;;;;14.63;2.05;;;;;;;;;;6133644;23;20024;-44
2023/08/19 04:18:59;;;;;;;14.27;2.45;;;;;;;;;;6124308;23;20104;-42
2023/08/19 04:21:27;;;;;;;15.45;2.90;;;;;;;;;;6132741;23;20018;-42
2023/08/19 04:23:55;;;;;;;16.77;3.33;;;;;;;;;;6125759;23;20014;-42
2023/08/19 04:26:23;;;;;;;16.33;2.57;;;;;;;;;;6135125;23;20469;-44
2023/08/19 04:28:52;;;;;;;12.63;2.00;;;;;;;;;;6147151;23;20091;-45
2023/08/19 04:31:19;;;;;;;15.85;2.08;;;;;;;;;;6140838;23;20445;-42
2023/08/19 04:33:49;;;;;;;16.35;2.90;;;;;;;;;;6129668;23;20017;-42
2023/08/19 04:36:18;;;;;;;15.85;1.95;;;;;;;;;;6133626;23;20448;-42
2023/08/19 04:38:45;;;;;;;18.60;2.33;;;;;;;;;;6133849;23;20029;-42
2023/08/19 04:41:13;;;;;;;12.15;2.63;;;;;;;;;;6128218;23;20025;-42
2023/08/19 04:43:40;;;;;;;12.82;2.00;;;;;;;;;;6124114;23;20376;-42
2023/08/19 04:46:26;;;;;;;13.63;2.35;;;;;;;;;;6131524;23;20018;-42
2023/08/19 04:48:53;;;;;;;12.48;2.33;;;;;;;;;;6149677;23;20448;-43
2023/08/19 04:51:23;;;;;;;13.83;1.83;;;;;;;;;;6121767;23;20013;-43
2023/08/19 04:53:50;;;;;;;11.30;1.30;;;;;;;;;;6129732;23;20045;-42
2023/08/19 04:56:18;;;;;;;11.80;2.28;;;;;;;;;;6120448;23;20495;-43
2023/08/19 04:58:46;;;;;;;11.75;2.20;;;;;;;;;;6126825;23;20018;-43
2023/08/19 05:01:14;;;;;;;13.48;2.28;;;;;;;;;;6123003;23;20024;-45
2023/08/19 05:03:42;;;;;;;12.60;1.83;;;;;;;;;;6126537;23;20169;-46
2023/08/19 05:06:10;;;;;;;9.70;1.67;;;;;;;;;;6125699;23;20017;-42
2023/08/19 05:08:39;;;;;;;8.70;1.58;;;;;;;;;;6126744;23;20041;-42
2023/08/19 05:11:06;;;;;;;10.55;2.15;;;;;;;;;;6118618;23;20021;-43
2023/08/19 05:13:35;;;;;;;11.18;1.52;;;;;;;;;;6127404;23;20017;-42
2023/08/19 05:16:21;;;;;;;12.07;2.77;;;;;;;;;;6127372;23;20356;-45
2023/08/19 05:18:51;;;;;;;11.05;1.98;;;;;;;;;;6124743;23;20013;-43
2023/08/19 05:21:19;;;;;;;15.50;2.00;;;;;;;;;;6130920;23;20020;-44
2023/08/19 05:23:48;;;;;;;17.17;2.85;;;;;;;;;;6118450;23;20018;-43
2023/08/19 05:26:16;;;;;;;17.48;3.13;;;;;;;;;;6125955;23;20018;-44
2023/08/19 05:28:44;;;;;;;15.60;3.13;;;;;;;;;;6119173;23;20619;-42
2023/08/19 05:31:11;;;;;;;13.38;2.50;;;;;;;;;;6127017;23;20021;-44
2023/08/19 05:33:39;;;;;;;13.20;2.58;;;;;;;;;;6115186;23;20439;-42
2023/08/19 05:36:08;;;;;;;14.70;2.42;;;;;;;;;;6123947;23;20369;-42
2023/08/19 05:38:36;;;;;;;11.07;2.85;;;;;;;;;;6128344;23;20013;-43
2023/08/19 05:41:05;;;;;;;12.57;2.03;;;;;;;;;;6125748;23;20040;-42
2023/08/19 05:43:34;;;;;;;13.40;2.38;;;;;;;;;;6122512;23;20040;-43
2023/08/19 05:46:04;;;;;;;16.77;2.15;;;;;;;;;;6132081;23;20018;-44
2023/08/19 05:48:33;;;;;;;13.68;2.25;;;;;;;;;;6124435;23;20072;-44
2023/08/19 05:51:01;;;;;;;11.40;2.42;;;;;;;;;;6128241;23;20093;-46
2023/08/19 05:53:29;;;;;;;18.07;2.37;;;;;;;;;;6126280;23;20014;-46
2023/08/19 05:55:57;;;;;;;12.68;2.28;;;;;;;;;;6120729;23;20036;-42
2023/08/19 05:58:26;;;;;;;16.88;2.33;;;;;;;;;;6125458;23;20024;-42
2023/08/19 06:00:57;;;;;;;14.40;2.03;;;;;;;;;;6119475;23;20853;-44
2023/08/19 06:03:25;;;;;;;14.02;2.38;;;;;;;;;;6131775;23;20837;-48
2023/08/19 06:05:53;;;;;;;18.60;2.53;;;;;;;;;;6122741;23;20328;-43
2023/08/19 06:08:21;;;;;;;16.80;2.20;;;;;;;;;;6133155;23;20024;-42
2023/08/19 06:11:00;;;;;;;16.27;2.47;;;;;;;;;;6110602;23;20028;-43
2023/08/19 06:13:29;;;;;;;16.15;2.60;;;;;;;;;;6131586;23;20017;-43
2023/08/19 06:15:56;;;;;;;14.63;2.30;;;;;;;;;;6110645;23;20021;-44
2023/08/19 06:18:26;;;;;;;16.20;2.30;;;;;;;;;;6130653;23;20097;-43
2023/08/19 06:20:56;;;;;;;19.00;2.75;;;;;;;;;;6127626;23;20013;-42
2023/08/19 06:23:24;;;;;;;13.43;2.08;;;;;;;;;;6122153;23;20017;-43
2023/08/19 06:25:52;;;;;;;14.32;2.17;;;;;;;;;;6131694;23;20017;-42
2023/08/19 06:28:20;;;;;;;12.27;2.40;;;;;;;;;;6121162;23;20027;-44
2023/08/19 06:30:50;;;;;;;14.47;2.40;;;;;;;;;;6124511;23;20579;-46
2023/08/19 06:33:18;;;;;;;23.35;2.15;;;;;;;;;;6116738;23;20753;-44
2023/08/19 06:35:48;;;;;;;11.85;2.10;;;;;;;;;;6125423;23;20025;-42
2023/08/19 06:38:18;;;;;;;18.08;2.58;;;;;;;;;;6128050;23;20242;-44
2023/08/19 06:40:51;;;;;;;12.63;2.30;;;;;;;;;;6127992;23;20014;-42
2023/08/19 06:43:19;;;;;;;10.47;1.97;;;;;;;;;;6120204;23;20017;-42
2023/08/19 06:45:47;;;;;;;13.82;1.73;;;;;;;;;;6129419;23;20125;-44
2023/08/19 06:48:16;;;;;;;13.50;1.77;;;;;;;;;;6114579;23;20014;-44
2023/08/19 06:50:44;;;;;;;12.20;1.83;;;;;;;;;;6116212;23;20017;-43
2023/08/19 06:53:12;;;;;;;12.80;1.90;;;;;;;;;;6122261;23;20017;-43
2023/08/19 06:55:41;;;;;;;11.00;1.60;;;;;;;;;;6124970;23;20021;-43
2023/08/19 06:58:10;;;;;;;10.38;2.00;;;;;;;;;;6122596;23;20017;-45
2023/08/19 07:00:42;;;;;;;11.05;1.48;;;;;;;;;;6126579;23;20070;-44
2023/08/19 07:03:11;;;;;;;11.93;2.25;;;;;;;;;;6118919;23;20252;-44
2023/08/19 07:05:41;;;;;;;16.27;1.88;;;;;;;;;;6120559;23;20408;-44
2023/08/19 07:08:11;;;;;;;10.40;1.70;;;;;;;;;;6124075;23;20025;-46
2023/08/19 07:10:41;;;;;;;13.93;1.92;;;;;;;;;;6113816;23;20400;-42
2023/08/19 07:13:09;;;;;;;13.82;1.83;;;;;;;;;;6131704;23;20021;-42
2023/08/19 07:15:38;;;;;;;11.35;1.92;;;;;;;;;;6118111;23;20021;-45
2023/08/19 07:18:08;;;;;;;14.27;2.28;;;;;;;;;;6127907;23;20092;-43
2023/08/19 07:20:36;;;;;;;9.23;2.27;;;;;;;;;;6122603;23;20388;-43
2023/08/19 07:23:05;;;;;;;14.77;1.92;;;;;;;;;;6119307;23;20590;-43
2023/08/19 07:25:34;;;;;;;14.25;1.95;;;;;;;;;;6125587;23;20040;-43
2023/08/19 07:28:03;;;;;;;15.60;1.80;;;;;;;;;;6121890;23;20022;-43
2023/08/19 07:30:32;;;;;;;8.15;1.30;;;;;;;;;;6126111;23;20630;-42
2023/08/19 07:33:02;;;;;;;11.97;1.57;;;;;;;;;;6118453;23;20022;-44
2023/08/19 07:35:29;;;;;;;12.60;1.60;;;;;;;;;;6118407;23;20068;-42
2023/08/19 07:37:57;;;;;;;11.35;2.00;;;;;;;;;;6127281;23;20234;-44
2023/08/19 07:40:26;;;;;;;19.63;2.00;;;;;;;;;;6142332;23;20087;-44
2023/08/19 07:42:54;;;;;;;10.45;1.55;;;;;;;;;;6121099;23;20013;-43
2023/08/19 07:45:22;;;;;;;12.07;1.60;;;;;;;;;;6129102;23;20040;-44
2023/08/19 07:47:49;;;;;;;10.98;1.50;;;;;;;;;;6117376;23;20013;-45
2023/08/19 07:50:17;;;;;;;12.15;2.28;;;;;;;;;;6134978;23;20013;-43
2023/08/19 07:52:45;;;;;;;11.43;1.75;;;;;;;;;;6135391;23;20024;-43
2023/08/19 07:55:13;;;;;;;12.20;2.00;;;;;;;;;;6133804;23;20015;-42
2023/08/19 07:57:42;;;;;;;7.83;1.73;;;;;;;;;;6120253;23;20455;-44
2023/08/19 08:00:10;;;;;;;12.40;1.75;;;;;;;;;;6130903;23;20021;-42
2023/08/19 08:02:38;;;;;;;6.80;1.60;;;;;;;;;;6107405;23;20064;-43
2023/08/19 08:05:06;;;;;;;11.70;1.70;;;;;;;;;;6136156;23;20448;-42
2023/08/19 08:07:34;;;;;;;11.40;1.95;;;;;;;;;;6122648;23;20018;-43
2023/08/19 08:10:03;;;;;;;13.30;2.30;;;;;;;;;;6127038;23;20108;-44
2023/08/19 08:12:31;;;;;;;9.30;1.67;;;;;;;;;;6117035;23;20022;-42
2023/08/19 08:15:00;;;;;;;10.80;2.28;;;;;;;;;;6129126;23;20021;-43
2023/08/19 08:17:28;;;;;;;11.40;1.70;;;;;;;;;;6125493;23;20024;-43
2023/08/19 08:19:58;;;;;;;11.75;1.60;;;;;;;;;;6127806;23;20021;-43
2023/08/19 08:22:28;;;;;;;9.53;1.67;;;;;;;;;;6131480;23;20022;-44
2023/08/19 08:24:56;;;;;;;8.27;1.77;;;;;;;;;;6121815;23;20018;-44
2023/08/19 08:27:23;;;;;;;10.85;2.10;;;;;;;;;;6132132;23;20021;-44
2023/08/19 08:29:51;;;;;;;9.68;1.65;;;;;;;;;;6120414;23;20024;-46
2023/08/19 08:32:20;;;;;;;10.23;1.60;;;;;;;;;;6127740;23;20022;-45
2023/08/19 08:34:48;;;;;;;8.47;1.50;;;;;;;;;;6113145;23;20081;-44
2023/08/19 08:37:16;;;;;;;9.27;1.48;;;;;;;;;;6124540;23;20211;-43
2023/08/19 08:39:44;;;;;;;6.90;1.40;;;;;;;;;;6119720;23;20017;-44
2023/08/19 08:42:12;;;;;;;11.13;1.42;;;;;;;;;;6122155;23;20453;-43
2023/08/19 08:44:40;;;;;;;9.60;1.75;;;;;;;;;;6124477;23;20021;-43
2023/08/19 08:47:12;;;;;;;8.97;1.57;;;;;;;;;;6131228;23;20045;-46
2023/08/19 08:49:41;;;;;;;8.45;1.42;;;;;;;;;;6121574;23;20456;-45
2023/08/19 08:52:09;;;;;;;13.63;2.45;;;;;;;;;;6126989;23;20029;-42
2023/08/19 08:54:37;;;;;;;8.43;1.60;;;;;;;;;;6126510;23;20043;-45
2023/08/19 08:57:05;;;;;;;11.23;1.48;;;;;;;;;;6126143;23;20017;-44
2023/08/19 08:59:33;;;;;;;9.37;1.90;;;;;;;;;;6122622;23;20014;-43
2023/08/19 09:02:01;;;;;;;14.38;1.63;;;;;;;;;;6129091;23;20018;-43
2023/08/19 09:04:31;;;;;;;14.73;1.52;;;;;;;;;;6122368;23;20017;-43
2023/08/19 09:07:05;;;;;;;13.75;1.67;;;;;;;;;;6124902;23;20025;-43
2023/08/19 09:09:37;;;;;;;9.00;1.48;;;;;;;;;;6124962;23;20026;-44
2023/08/19 09:12:07;;;;;;;9.00;1.80;;;;;;;;;;6111958;23;20367;-44
2023/08/19 09:14:38;;;;;;;9.38;1.65;;;;;;;;;;6125987;23;20024;-44
2023/08/19 09:17:06;;;;;;;7.57;1.15;;;;;;;;;;6116136;23;20020;-44
2023/08/19 09:19:35;;;;;;;9.20;1.65;;;;;;;;;;6124568;23;20345;-44
2023/08/19 09:22:20;;;;;;;10.80;1.33;;;;;;;;;;6118791;23;20018;-43
2023/08/19 09:24:47;;;;;;;12.20;2.03;;;;;;;;;;6147925;23;20021;-45
2023/08/19 09:27:18;;;;;;;8.32;1.48;;;;;;;;;;6123620;23;20033;-43
2023/08/19 09:29:50;;;;;;;10.45;1.65;;;;;;;;;;6141443;23;20021;-45
2023/08/19 09:32:26;;;;;;;8.85;1.67;;;;;;;;;;6124675;23;20108;-44
2023/08/19 09:35:00;;;;;;;7.57;1.35;;;;;;;;;;6102868;23;20310;-44
2023/08/19 09:37:30;;;;;;;10.43;1.67;;;;;;;;;;6121427;23;20097;-44
2023/08/19 09:39:58;;;;;;;11.68;1.70;;;;;;;;;;6119323;23;20021;-44
2023/08/19 09:42:27;;;;;;;6.85;1.40;;;;;;;;;;6123748;23;20036;-44
2023/08/19 09:44:55;;;;;;;8.02;1.80;;;;;;;;;;6112220;23;20072;-43
2023/08/19 09:47:23;;;;;;;9.63;1.95;;;;;;;;;;6147916;23;20025;-44
2023/08/19 09:49:51;;;;;;;6.53;1.27;;;;;;;;;;6115617;23;20467;-46
2023/08/19 09:52:18;;;;;;;7.18;1.73;;;;;;;;;;6125460;23;20032;-45
2023/08/19 09:54:54;;;;;;;9.25;1.50;;;;;;;;;;6108927;23;20065;-44
2023/08/19 09:57:31;;;;;;;8.15;1.30;;;;;;;;;;6120763;23;20052;-42
2023/08/19 09:59:59;;;;;;;9.32;1.23;;;;;;;;;;6147012;23;20018;-43
2023/08/19 10:02:28;;;;;;;8.67;0.97;;;;;;;;;;6123458;23;20022;-43
2023/08/19 10:04:56;;;;;;;9.85;2.00;;;;;;;;;;6140297;23;20022;-43
2023/08/19 10:07:29;;;;;;;10.82;1.55;;;;;;;;;;6118542;23;20018;-43
2023/08/19 10:10:00;;;;;;;8.38;1.00;;;;;;;;;;6126618;23;20058;-45
2023/08/19 10:12:28;;;;;;;7.05;1.30;;;;;;;;;;6122133;23;20049;-46
2023/08/19 10:14:58;;;;;;;8.30;1.07;;;;;;;;;;6127926;23;20045;-43
2023/08/19 10:17:26;;;;;;;8.75;1.23;;;;;;;;;;6121703;23;20490;-45
2023/08/19 10:19:57;;;;;;;7.90;1.48;;;;;;;;;;6151659;23;20105;-42
2023/08/19 10:22:27;;;;;;;8.57;1.38;;;;;;;;;;6115726;23;20055;-48
2023/08/19 10:24:57;;;;;;;7.28;1.45;;;;;;;;;;6125812;23;20767;-45
2023/08/19 10:27:26;;;;;;;11.00;1.83;;;;;;;;;;6121231;23;20033;-43
2023/08/19 10:29:56;;;;;;;7.28;1.45;;;;;;;;;;6126769;23;20344;-43
2023/08/19 10:32:27;;;;;;;10.13;2.30;;;;;;;;;;6120087;23;20025;-44
2023/08/19 10:35:04;;;;;;;13.98;2.60;;;;;;;;;;6115590;23;20041;-49
2023/08/19 10:37:33;;;;;;;10.38;1.67;;;;;;;;;;6121535;23;20020;-45
2023/08/19 10:40:09;;;;;;;12.37;1.90;;;;;;;;;;6126799;23;20032;-43
2023/08/19 10:42:38;;;;;;;11.50;1.88;;;;;;;;;;6116011;23;20017;-44
2023/08/19 10:45:13;;;;;;;12.05;1.77;;;;;;;;;;6123646;23;20017;-45
2023/08/19 10:47:42;;;;;;;8.43;1.90;;;;;;;;;;6141114;23;20464;-44
2023/08/19 10:50:10;;;;;;;8.13;2.08;;;;;;;;;;6125386;23;20404;-43
2023/08/19 10:52:40;;;;;;;8.93;2.10;;;;;;;;;;6114100;23;20025;-44
2023/08/19 10:55:08;;;;;;;12.65;2.20;;;;;;;;;;6127554;23;20032;-43
2023/08/19 10:57:38;;;;;;;9.70;2.03;;;;;;;;;;6119162;23;20024;-43
2023/08/19 11:00:11;;;;;;;10.07;1.85;;;;;;;;;;6127938;23;20023;-47
2023/08/19 11:02:39;;;;;;;13.20;1.95;;;;;;;;;;6110157;23;20466;-44
2023/08/19 11:05:08;;;;;;;12.30;2.13;;;;;;;;;;6130740;23;20013;-44
2023/08/19 11:07:35;;;;;;;8.80;2.00;;;;;;;;;;6117647;23;20021;-44
2023/08/19 11:10:04;;;;;;;8.50;1.90;;;;;;;;;;6148624;23;20025;-44
2023/08/19 11:12:31;;;;;;;8.20;1.48;;;;;;;;;;6113502;23;20014;-45
2023/08/19 11:15:00;;;;;;;12.57;1.92;;;;;;;;;;6129715;23;20100;-45
2023/08/19 11:17:30;;;;;;;7.80;1.77;;;;;;;;;;6111325;23;20640;-43
2023/08/19 11:19:58;;;;;;;10.43;1.80;;;;;;;;;;6129175;23;20022;-42
2023/08/19 11:22:26;;;;;;;7.50;1.80;;;;;;;;;;6113486;23;20022;-46
2023/08/19 11:24:54;;;;;;;9.93;1.60;;;;;;;;;;6127385;23;20064;-46
2023/08/19 11:27:22;;;;;;;10.43;2.33;;;;;;;;;;6121808;23;20018;-46
2023/08/19 11:29:49;;;;;;;11.27;1.97;;;;;;;;;;6129279;23;20017;-44
2023/08/19 11:32:20;;;;;;;6.35;1.33;;;;;;;;;;6107663;23;20014;-44
2023/08/19 11:34:49;;;;;;;10.50;2.00;;;;;;;;;;6126966;23;20021;-42
2023/08/19 11:37:17;;;;;;;8.35;1.67;;;;;;;;;;6117316;23;20017;-44
2023/08/19 11:39:45;;;;;;;10.80;1.88;;;;;;;;;;6124833;23;20581;-44
2023/08/19 11:42:13;;;;;;;9.57;1.23;;;;;;;;;;6122467;23;20471;-43
2023/08/19 11:44:42;;;;;;;9.90;1.65;;;;;;;;;;6122932;23;20025;-43
2023/08/19 11:47:11;;;;;;;8.00;2.10;;;;;;;;;;6127022;23;20017;-44
2023/08/19 11:49:39;;;;;;;9.70;1.33;;;;;;;;;;6124158;23;20020;-43
2023/08/19 11:52:08;;;;;;;10.27;2.08;;;;;;;;;;6132371;23;20014;-46
2023/08/19 11:54:36;;;;;;;10.23;1.80;;;;;;;;;;6115813;23;20026;-45
2023/08/19 11:57:06;;;;;;;9.73;1.50;;;;;;;;;;6127490;23;20225;-45
2023/08/19 11:59:34;;;;;;;10.45;1.48;;;;;;;;;;6126435;23;20022;-45
2023/08/19 12:02:04;;;;;;;5.80;1.50;;;;;;;;;;6128987;23;20049;-46
2023/08/19 12:04:32;;;;;;;10.10;1.95;;;;;;;;;;6122205;23;20124;-46
2023/08/19 12:07:03;;;;;;;7.53;1.20;;;;;;;;;;6126407;23;20040;-45
2023/08/19 12:09:35;;;;;;;7.32;1.67;;;;;;;;;;6122085;23;20017;-42
2023/08/19 12:12:07;;;;;;;8.50;1.80;;;;;;;;;;6125839;23;20025;-44
2023/08/19 12:14:35;;;;;;;7.55;1.52;;;;;;;;;;6123335;23;20036;-42
2023/08/19 12:17:04;;;;;;;10.10;2.38;;;;;;;;;;6143750;23;20387;-42
2023/08/19 12:19:32;;;;;;;8.57;1.40;;;;;;;;;;6125665;23;20372;-43
2023/08/19 12:21:59;;;;;;;9.98;1.70;;;;;;;;;;6144009;23;20460;-45
2023/08/19 12:24:27;;;;;;;6.85;1.67;;;;;;;;;;6134811;23;20022;-44
2023/08/19 12:26:57;;;;;;;9.65;1.60;;;;;;;;;;6116728;23;20093;-42
2023/08/19 12:29:24;;;;;;;7.15;1.30;;;;;;;;;;6123439;23;20017;-42
2023/08/19 12:31:52;;;;;;;7.40;1.00;;;;;;;;;;6108254;23;20856;-42
2023/08/19 12:34:20;;;;;;;9.25;1.35;;;;;;;;;;6121644;23;20531;-42
2023/08/19 12:36:47;;;;;;;8.77;1.50;;;;;;;;;;6118353;23;20028;-42
2023/08/19 12:39:15;;;;;;;6.85;1.20;;;;;;;;;;6125537;23;20021;-42
2023/08/19 12:41:44;;;;;;;9.07;1.35;;;;;;;;;;6125350;23;20013;-43
2023/08/19 12:44:13;;;;;;;10.13;1.60;;;;;;;;;;6119384;23;20071;-42
2023/08/19 12:46:42;;;;;;;4.38;0.90;;;;;;;;;;6123338;23;20024;-44
2023/08/19 12:49:09;;;;;;;5.15;1.00;;;;;;;;;;6127172;23;20049;-42
2023/08/19 12:51:37;;;;;;;8.00;1.50;;;;;;;;;;6118371;23;20026;-43
2023/08/19 12:54:06;;;;;;;7.80;1.52;;;;;;;;;;6123108;23;20028;-43
2023/08/19 12:56:34;;;;;;;9.50;1.87;;;;;;;;;;6122011;23;20021;-45
2023/08/19 12:59:02;;;;;;;10.05;1.63;;;;;;;;;;6114192;23;20412;-43
2023/08/19 13:01:31;;;;;;;8.52;1.30;;;;;;;;;;6124754;23;20022;-46
2023/08/19 13:03:59;;;;;;;6.70;1.42;;;;;;;;;;6124919;23;20448;-42
2023/08/19 13:06:27;;;;;;;6.60;1.52;;;;;;;;;;6124332;23;20041;-46
2023/08/19 13:08:55;;;;;;;6.63;1.30;;;;;;;;;;6115569;23;20022;-42
2023/08/19 13:11:23;;;;;;;8.10;1.75;;;;;;;;;;6128223;23;20410;-42
2023/08/19 13:13:53;;;;;;;8.68;1.40;;;;;;;;;;6118520;23;20515;-43
2023/08/19 13:16:21;;;;;;;8.73;1.40;;;;;;;;;;6130883;23;20021;-42
2023/08/19 13:18:50;;;;;;;7.28;1.90;;;;;;;;;;6114389;23;20553;-42
2023/08/19 13:21:17;;;;;;;6.77;1.47;;;;;;;;;;6132128;23;20080;-42
2023/08/19 13:23:45;;;;;;;8.27;1.45;;;;;;;;;;6138539;23;20018;-44
2023/08/19 13:26:13;;;;;;;7.80;1.73;;;;;;;;;;6132626;23;20021;-43
2023/08/19 13:28:41;;;;;;;12.52;1.70;;;;;;;;;;6114508;23;20348;-44
2023/08/19 13:31:08;;;;;;;8.27;1.90;;;;;;;;;;6130472;23;20017;-47
2023/08/19 13:33:36;;;;;;;7.37;1.57;;;;;;;;;;6143869;23;20464;-44
2023/08/19 13:36:05;;;;;;;7.28;1.50;;;;;;;;;;6121623;23;20014;-45
2023/08/19 13:38:33;;;;;;;8.10;1.65;;;;;;;;;;6130554;23;20024;-44
2023/08/19 13:41:01;;;;;;;11.88;2.00;;;;;;;;;;6118540;23;20100;-46
2023/08/19 13:43:29;;;;;;;7.72;1.85;;;;;;;;;;6128245;23;20096;-43
2023/08/19 13:45:57;;;;;;;10.50;1.73;;;;;;;;;;6130449;23;20033;-44
2023/08/19 13:48:26;;;;;;;11.63;2.00;;;;;;;;;;6122969;23;20045;-48
2023/08/19 13:50:56;;;;;;;12.82;2.00;;;;;;;;;;6124769;23;20100;-45
2023/08/19 13:53:25;;;;;;;11.00;1.48;;;;;;;;;;6127439;23;20133;-45
2023/08/19 13:55:54;;;;;;;12.27;1.58;;;;;;;;;;6116390;23;20029;-44
2023/08/19 13:58:21;;;;;;;7.03;1.53;;;;;;;;;;6128481;23;20460;-42
2023/08/19 14:00:49;;;;;;;9.30;2.42;;;;;;;;;;6107531;23;20022;-50
2023/08/19 14:03:18;;;;;;;10.50;1.83;;;;;;;;;;6122934;23;20396;-42
2023/08/19 14:05:46;;;;;;;9.60;1.35;;;;;;;;;;6124625;23;20108;-45
2023/08/19 14:08:14;;;;;;;9.30;1.60;;;;;;;;;;6152191;23;20014;-46
2023/08/19 14:10:43;;;;;;;10.20;1.73;;;;;;;;;;6125070;23;20036;-42
2023/08/19 14:13:10;;;;;;;9.93;1.55;;;;;;;;;;6127130;23;20018;-43
2023/08/19 14:15:38;;;;;;;8.27;1.45;;;;;;;;;;6119760;23;20018;-43
2023/08/19 14:18:06;;;;;;;9.55;1.98;;;;;;;;;;6120010;23;20021;-48
2023/08/19 14:20:34;;;;;;;10.02;1.85;;;;;;;;;;6114479;23;20014;-44
2023/08/19 14:23:03;;;;;;;9.50;1.80;;;;;;;;;;6125044;23;20056;-43
2023/08/19 14:25:30;;;;;;;10.93;1.92;;;;;;;;;;6114924;23;20205;-41
2023/08/19 14:28:00;;;;;;;9.20;1.70;;;;;;;;;;6122932;23;20274;-43
2023/08/19 14:30:27;;;;;;;14.63;2.28;;;;;;;;;;6123537;23;20665;-42
2023/08/19 14:32:55;;;;;;;9.43;1.85;;;;;;;;;;6121528;23;20567;-42
2023/08/19 14:35:23;;;;;;;10.33;2.00;;;;;;;;;;6122310;23;20068;-42
2023/08/19 14:37:51;;;;;;;7.85;1.63;;;;;;;;;;6120594;23;20017;-43
2023/08/19 14:40:23;;;;;;;7.75;1.63;;;;;;;;;;6143682;23;20021;-42
2023/08/19 14:42:51;;;;;;;9.20;1.40;;;;;;;;;;6127141;23;20024;-45